createdAt,value
2022-09-21T00:00:53.504Z,16.20
2022-09-21T00:03:20.957Z,16.51
2022-09-21T00:05:48.121Z,16.49
2022-09-21T00:08:15.258Z,15.31
2022-09-21T00:10:42.845Z,15.76
2022-09-21T00:13:11.874Z,15.49
2022-09-21T00:15:39.450Z,15.85
2022-09-21T00:18:06.874Z,15.30
2022-09-21T00:20:33.981Z,16.37
2022-09-21T00:23:01.089Z,15.27
2022-09-21T00:25:28.504Z,15.03
2022-09-21T00:27:56.063Z,14.47
2022-09-21T00:30:23.216Z,13.31
2022-09-21T00:32:50.588Z,14.66
2022-09-21T00:35:17.720Z,15.10
2022-09-21T00:37:44.886Z,15.64
2022-09-21T00:40:12.490Z,15.50
2022-09-21T00:42:39.641Z,15.41
2022-09-21T00:45:06.929Z,15.34
2022-09-21T00:47:34.260Z,15.77
2022-09-21T00:50:02.561Z,15.99
2022-09-21T00:52:31.652Z,15.27
2022-09-21T00:55:08.130Z,14.83
2022-09-21T00:57:35.613Z,14.87
2022-09-21T01:00:05.085Z,14.97
2022-09-21T01:02:32.335Z,15.30
2022-09-21T01:04:59.485Z,14.23
2022-09-21T01:07:28.415Z,14.64
2022-09-21T01:09:58.358Z,14.63
2022-09-21T01:12:43.904Z,15.26
2022-09-21T01:15:25.114Z,15.31
2022-09-21T01:17:55.217Z,14.71
2022-09-21T01:20:36.003Z,14.49
2022-09-21T01:23:07.196Z,14.21
2022-09-21T01:25:53.490Z,13.66
2022-09-21T01:28:30.367Z,14.16
2022-09-21T01:30:58.640Z,13.90
2022-09-21T01:33:25.968Z,13.81
2022-09-21T01:35:54.849Z,13.54
2022-09-21T01:38:24.630Z,13.69
2022-09-21T01:40:52.958Z,13.77
2022-09-21T01:43:25.417Z,13.86
2022-09-21T01:45:54.587Z,12.96
2022-09-21T01:48:22.368Z,14.20
2022-09-21T01:50:56.536Z,14.73
2022-09-21T01:53:25.371Z,14.89
2022-09-21T01:55:53.997Z,14.75
2022-09-21T01:58:21.081Z,15.11
2022-09-21T02:00:53.016Z,14.28
2022-09-21T02:03:30.803Z,14.40
2022-09-21T02:05:58.958Z,14.63
2022-09-21T02:08:26.935Z,14.19
2022-09-21T02:10:54.078Z,14.47
2022-09-21T02:13:23.386Z,14.71
2022-09-21T02:15:56.593Z,14.92
2022-09-21T02:18:26.734Z,15.25
2022-09-21T02:20:57.126Z,15.29
2022-09-21T02:23:32.361Z,14.33
2022-09-21T02:26:06.831Z,13.62
2022-09-21T02:28:43.792Z,13.97
2022-09-21T02:31:20.926Z,13.92
2022-09-21T02:33:52.064Z,13.80
2022-09-21T02:36:26.476Z,14.49
2022-09-21T02:38:54.520Z,14.45
2022-09-21T02:41:24.048Z,14.80
2022-09-21T02:43:53.284Z,14.05
2022-09-21T02:46:29.520Z,14.92
2022-09-21T02:48:58.225Z,15.12
2022-09-21T02:51:26.324Z,14.97
2022-09-21T02:53:53.664Z,14.45
2022-09-21T02:56:21.029Z,14.95
2022-09-21T02:58:49.857Z,14.43
2022-09-21T03:01:16.977Z,14.04
2022-09-21T03:03:44.883Z,14.53
2022-09-21T03:06:12.062Z,14.83
2022-09-21T03:08:39.207Z,14.86
2022-09-21T03:11:07.009Z,15.32
2022-09-21T03:13:34.608Z,14.53
2022-09-21T03:16:02.918Z,15.49
2022-09-21T03:18:30.749Z,15.41
2022-09-21T03:20:58.036Z,15.66
2022-09-21T03:23:25.181Z,14.29
2022-09-21T03:25:52.553Z,15.38
2022-09-21T03:28:20.011Z,15.56
2022-09-21T03:30:50.918Z,15.74
2022-09-21T03:33:19.262Z,15.61
2022-09-21T03:35:48.251Z,15.07
2022-09-21T03:38:16.816Z,14.75
2022-09-21T03:40:47.921Z,14.82
2022-09-21T03:43:15.137Z,14.97
2022-09-21T03:45:42.714Z,14.82
2022-09-21T03:48:10.980Z,14.83
2022-09-21T03:50:38.293Z,15.06
2022-09-21T03:53:05.803Z,13.91
2022-09-21T03:55:33.313Z,14.41
2022-09-21T03:58:00.681Z,14.66
2022-09-21T04:00:27.998Z,15.26
2022-09-21T04:02:55.443Z,14.83
2022-09-21T04:05:22.869Z,14.92
2022-09-21T04:07:50.237Z,15.64
2022-09-21T04:10:19.681Z,15.11
2022-09-21T04:12:47.029Z,15.50
2022-09-21T04:15:15.522Z,15.66
2022-09-21T04:17:42.925Z,15.49
2022-09-21T04:20:10.029Z,14.72
2022-09-21T04:22:41.244Z,15.23
2022-09-21T04:25:10.770Z,15.47
2022-09-21T04:27:38.008Z,14.43
2022-09-21T04:30:05.851Z,14.60
2022-09-21T04:32:33.267Z,14.62
2022-09-21T04:35:00.399Z,14.26
2022-09-21T04:37:27.591Z,14.31
2022-09-21T04:39:54.998Z,13.78
2022-09-21T04:42:22.206Z,14.53
2022-09-21T04:44:49.319Z,15.19
2022-09-21T04:47:16.740Z,13.93
2022-09-21T04:49:43.883Z,14.00
2022-09-21T04:52:12.220Z,12.49
2022-09-21T04:54:41.185Z,13.80
2022-09-21T04:57:08.327Z,13.28
2022-09-21T04:59:35.456Z,13.32
2022-09-21T05:02:02.861Z,13.84
2022-09-21T05:04:30.017Z,14.75
2022-09-21T05:06:59.369Z,13.79
2022-09-21T05:09:45.595Z,14.70
2022-09-21T05:12:12.734Z,14.12
2022-09-21T05:14:41.040Z,13.45
2022-09-21T05:17:08.328Z,12.89
2022-09-21T05:19:35.449Z,14.16
2022-09-21T05:22:02.873Z,13.96
2022-09-21T05:24:29.991Z,15.28
2022-09-21T05:26:57.102Z,13.89
2022-09-21T05:29:24.662Z,14.29
2022-09-21T05:31:52.756Z,13.35
2022-09-21T05:34:22.867Z,14.32
2022-09-21T05:36:50.222Z,14.49
2022-09-21T05:39:17.494Z,14.60
2022-09-21T05:41:44.742Z,14.55
2022-09-21T05:44:13.394Z,14.93
2022-09-21T05:46:54.008Z,15.70
2022-09-21T05:49:42.322Z,14.14
2022-09-21T05:52:12.975Z,14.36
2022-09-21T05:54:47.137Z,14.92
2022-09-21T05:57:34.324Z,14.50
2022-09-21T06:00:04.523Z,14.41
2022-09-21T06:02:45.267Z,13.23
2022-09-21T06:05:13.201Z,14.15
2022-09-21T06:07:41.560Z,14.85
2022-09-21T06:10:09.589Z,14.66
2022-09-21T06:12:36.971Z,15.01
2022-09-21T06:15:04.909Z,14.63
2022-09-21T06:17:32.586Z,14.58
2022-09-21T06:19:59.960Z,15.06
2022-09-21T06:22:27.062Z,14.36
2022-09-21T06:24:54.185Z,15.18
2022-09-21T06:27:21.713Z,15.01
2022-09-21T06:29:48.882Z,14.60
2022-09-21T06:32:16.072Z,15.31
2022-09-21T06:34:44.666Z,15.20
2022-09-21T06:37:11.829Z,15.21
2022-09-21T06:39:39.871Z,14.36
2022-09-21T06:42:07.377Z,14.58
2022-09-21T06:44:35.247Z,14.44
2022-09-21T06:47:02.368Z,15.09
2022-09-21T06:49:29.773Z,14.72
2022-09-21T06:51:56.874Z,15.25
2022-09-21T06:54:24.619Z,15.53
2022-09-21T06:56:52.013Z,15.51
2022-09-21T06:59:19.174Z,14.31
2022-09-21T07:01:46.449Z,14.64
2022-09-21T07:04:13.943Z,15.63
2022-09-21T07:06:41.077Z,15.33
2022-09-21T07:11:55.667Z,15.40
2022-09-21T07:14:23.459Z,15.54
2022-09-21T07:16:50.747Z,15.69
2022-09-21T07:19:18.166Z,15.63
2022-09-21T07:21:45.292Z,15.18
2022-09-21T07:24:12.790Z,15.26
2022-09-21T07:26:40.383Z,15.61
2022-09-21T07:29:07.792Z,15.45
2022-09-21T07:31:36.011Z,16.11
2022-09-21T07:34:03.462Z,15.13
2022-09-21T07:36:30.617Z,15.96
2022-09-21T07:38:58.789Z,15.03
2022-09-21T07:41:26.207Z,14.78
2022-09-21T07:43:53.583Z,16.23
2022-09-21T07:46:20.714Z,15.51
2022-09-21T07:48:48.221Z,16.18
2022-09-21T07:51:15.499Z,16.03
2022-09-21T07:53:44.029Z,16.16
2022-09-21T07:56:12.537Z,16.23
2022-09-21T07:58:58.227Z,16.53
2022-09-21T08:01:25.972Z,16.71
2022-09-21T08:03:54.455Z,16.09
2022-09-21T08:06:22.112Z,15.82
2022-09-21T08:08:53.702Z,16.33
2022-09-21T08:11:24.193Z,17.27
2022-09-21T08:13:55.192Z,17.52
2022-09-21T08:16:22.744Z,17.03
2022-09-21T08:18:51.569Z,17.84
2022-09-21T08:21:19.289Z,17.52
2022-09-21T08:23:48.614Z,17.57
2022-09-21T08:26:20.615Z,17.94
2022-09-21T08:28:49.299Z,17.42
2022-09-21T08:31:19.550Z,18.21
2022-09-21T08:33:47.238Z,18.14
2022-09-21T08:36:14.365Z,18.42
2022-09-21T08:38:41.764Z,17.62
2022-09-21T08:41:18.098Z,17.62
2022-09-21T08:43:50.233Z,18.08
2022-09-21T08:46:19.180Z,18.13
2022-09-21T08:48:56.808Z,18.43
2022-09-21T08:51:26.740Z,18.14
2022-09-21T08:53:55.954Z,16.89
2022-09-21T08:56:23.627Z,18.15
2022-09-21T08:58:50.761Z,17.74
2022-09-21T09:01:24.248Z,18.33
2022-09-21T09:04:16.214Z,19.15
2022-09-21T09:06:47.932Z,18.37
2022-09-21T09:09:33.965Z,17.38
2022-09-21T09:12:01.325Z,18.32
2022-09-21T09:14:32.159Z,18.31
2022-09-21T09:17:19.021Z,18.83
2022-09-21T09:19:49.222Z,18.37
2022-09-21T09:22:18.079Z,18.46
2022-09-21T09:24:49.445Z,18.47
2022-09-21T09:27:27.756Z,18.13
2022-09-21T09:30:03.685Z,18.86
2022-09-21T09:32:43.872Z,19.13
2022-09-21T09:35:20.094Z,19.28
2022-09-21T09:37:47.500Z,19.40
2022-09-21T09:40:14.833Z,18.81
2022-09-21T09:42:48.249Z,18.83
2022-09-21T09:45:26.342Z,19.31
2022-09-21T09:47:53.683Z,18.37
2022-09-21T09:50:24.402Z,18.86
2022-09-21T09:52:53.140Z,19.21
2022-09-21T09:55:25.800Z,18.43
2022-09-21T09:57:54.957Z,18.30
2022-09-21T10:00:22.666Z,18.38
2022-09-21T10:02:51.478Z,18.37
2022-09-21T10:05:20.017Z,18.81
2022-09-21T10:07:47.294Z,18.51
2022-09-21T10:10:32.975Z,19.22
2022-09-21T10:13:15.295Z,19.10
2022-09-21T10:15:57.450Z,18.54
2022-09-21T10:18:25.588Z,18.96
2022-09-21T10:20:56.140Z,19.71
2022-09-21T10:23:23.397Z,18.94
2022-09-21T10:25:54.541Z,19.41
2022-09-21T10:28:21.996Z,19.49
2022-09-21T10:30:49.407Z,19.20
2022-09-21T10:33:20.474Z,19.77
2022-09-21T10:35:53.953Z,19.61
2022-09-21T10:38:22.751Z,19.26
2022-09-21T10:40:50.462Z,19.81
2022-09-21T10:43:43.624Z,20.31
2022-09-21T10:46:11.471Z,20.40
2022-09-21T10:48:38.638Z,19.99
2022-09-21T10:51:05.779Z,20.12
2022-09-21T10:53:36.789Z,20.45
2022-09-21T10:56:16.735Z,20.18
2022-09-21T10:59:03.997Z,21.03
2022-09-21T11:01:31.332Z,20.09
2022-09-21T11:04:09.000Z,20.57
2022-09-21T11:06:46.815Z,19.63
2022-09-21T11:09:17.183Z,20.92
2022-09-21T11:11:59.515Z,20.32
2022-09-21T11:14:44.842Z,19.83
2022-09-21T11:17:12.236Z,20.41
2022-09-21T11:19:44.424Z,20.44
2022-09-21T11:22:20.695Z,20.14
2022-09-21T11:25:03.427Z,20.48
2022-09-21T11:27:33.742Z,19.64
2022-09-21T11:30:10.789Z,20.24
2022-09-21T11:32:45.274Z,20.12
2022-09-21T11:35:15.744Z,20.38
2022-09-21T11:37:50.488Z,20.09
2022-09-21T11:40:17.887Z,20.45
2022-09-21T11:42:48.977Z,20.11
2022-09-21T11:45:32.633Z,20.63
2022-09-21T11:47:59.968Z,20.22
2022-09-21T11:50:31.304Z,19.81
2022-09-21T11:53:17.463Z,20.47
2022-09-21T11:55:47.853Z,20.58
2022-09-21T11:58:15.337Z,20.00
2022-09-21T12:00:45.518Z,19.55
2022-09-21T12:03:31.587Z,19.44
2022-09-21T12:06:14.045Z,19.83
2022-09-21T12:08:54.189Z,20.55
2022-09-21T12:11:21.271Z,20.78
2022-09-21T12:13:55.256Z,20.31
2022-09-21T12:16:25.407Z,19.93
2022-09-21T12:18:55.725Z,20.39
2022-09-21T12:21:27.850Z,20.33
2022-09-21T12:23:56.694Z,20.82
2022-09-21T12:26:41.640Z,19.66
2022-09-21T12:29:13.792Z,20.41
2022-09-21T12:31:45.328Z,20.71
2022-09-21T12:34:19.929Z,20.55
2022-09-21T12:37:08.511Z,19.90
2022-09-21T12:39:40.578Z,20.97
2022-09-21T12:42:10.268Z,20.02
2022-09-21T12:44:52.370Z,20.57
2022-09-21T12:47:23.754Z,19.91
2022-09-21T12:49:51.377Z,20.30
2022-09-21T12:52:20.242Z,19.77
2022-09-21T12:54:50.088Z,19.71
2022-09-21T12:57:49.162Z,19.68
2022-09-21T13:00:14.667Z,19.14
2022-09-21T13:03:00.753Z,20.18
2022-09-21T13:05:27.881Z,20.33
2022-09-21T13:07:58.166Z,20.34
2022-09-21T13:10:28.757Z,20.06
2022-09-21T13:12:56.674Z,20.53
2022-09-21T13:15:27.190Z,21.05
2022-09-21T13:17:58.791Z,21.25
2022-09-21T13:20:26.194Z,21.48
2022-09-21T13:22:58.227Z,21.02
2022-09-21T13:25:28.101Z,22.15
2022-09-21T13:28:07.707Z,20.66
2022-09-21T13:30:39.460Z,20.46
2022-09-21T13:33:18.856Z,20.83
2022-09-21T13:35:54.028Z,20.10
2022-09-21T13:38:31.194Z,20.67
2022-09-21T13:41:02.462Z,20.59
2022-09-21T13:43:48.049Z,20.95
2022-09-21T13:46:34.274Z,21.25
2022-09-21T13:49:16.470Z,21.03
2022-09-21T13:51:50.072Z,20.57
2022-09-21T13:54:17.150Z,20.85
2022-09-21T13:56:44.788Z,19.92
2022-09-21T13:59:21.378Z,19.80
2022-09-21T14:01:48.879Z,20.39
2022-09-21T14:04:21.036Z,21.33
2022-09-21T14:06:48.660Z,20.83
2022-09-21T14:09:40.498Z,19.66
2022-09-21T14:12:09.246Z,20.03
2022-09-21T14:14:37.412Z,20.47
2022-09-21T14:17:05.129Z,20.76
2022-09-21T14:19:33.445Z,20.02
2022-09-21T14:22:03.478Z,20.32
2022-09-21T14:24:38.227Z,20.86
2022-09-21T14:27:09.562Z,20.47
2022-09-21T14:29:39.781Z,20.28
2022-09-21T14:32:11.888Z,19.68
2022-09-21T14:34:39.509Z,20.60
2022-09-21T14:37:11.175Z,20.02
2022-09-21T14:39:41.277Z,21.10
2022-09-21T14:42:15.953Z,20.30
2022-09-21T14:44:43.497Z,20.55
2022-09-21T14:47:11.338Z,20.66
2022-09-21T14:49:38.521Z,20.46
2022-09-21T14:52:31.374Z,20.43
2022-09-21T14:55:08.233Z,19.54
2022-09-21T14:58:14.413Z,19.56
2022-09-21T15:00:43.342Z,19.77
2022-09-21T15:03:29.953Z,19.66
2022-09-21T15:06:23.290Z,19.50
2022-09-21T15:09:23.517Z,19.90
2022-09-21T15:11:56.531Z,20.62
2022-09-21T15:14:44.183Z,18.85
2022-09-21T15:17:19.312Z,18.99
2022-09-21T15:19:47.143Z,19.82
2022-09-21T15:22:18.774Z,20.04
2022-09-21T15:24:54.914Z,19.65
2022-09-21T15:27:23.849Z,20.17
2022-09-21T15:29:53.146Z,19.06
2022-09-21T15:32:20.198Z,19.36
2022-09-21T15:34:47.621Z,19.12
2022-09-21T15:37:18.074Z,19.30
2022-09-21T15:39:45.256Z,19.29
2022-09-21T15:42:19.634Z,19.34
2022-09-21T15:44:48.806Z,20.04
2022-09-21T15:47:19.994Z,19.30
2022-09-21T15:49:48.019Z,19.00
2022-09-21T15:52:32.414Z,19.46
2022-09-21T15:55:00.517Z,20.26
2022-09-21T15:57:41.603Z,19.70
2022-09-21T16:00:15.431Z,19.66
2022-09-21T16:02:43.413Z,19.65
2022-09-21T16:05:14.188Z,19.51
2022-09-21T16:07:41.604Z,19.85
2022-09-21T16:10:28.409Z,18.54
2022-09-21T16:13:30.638Z,18.89
2022-09-21T16:16:05.239Z,19.32
2022-09-21T16:18:35.303Z,19.68
2022-09-21T16:21:12.318Z,19.72
2022-09-21T16:23:39.620Z,19.55
2022-09-21T16:26:07.163Z,20.04
2022-09-21T16:28:37.181Z,19.47
2022-09-21T16:31:23.984Z,20.39
2022-09-21T16:33:54.373Z,19.42
2022-09-21T16:36:25.537Z,20.28
2022-09-21T16:38:56.224Z,20.32
2022-09-21T16:41:24.784Z,20.07
2022-09-21T16:43:52.152Z,20.06
2022-09-21T16:46:19.616Z,19.59
2022-09-21T16:48:46.788Z,19.64
2022-09-21T16:51:17.038Z,19.12
2022-09-21T16:53:44.686Z,19.81
2022-09-21T16:56:15.337Z,19.72
2022-09-21T16:58:45.404Z,19.74
2022-09-21T17:01:13.516Z,20.24
2022-09-21T17:03:40.704Z,20.42
2022-09-21T17:06:15.412Z,20.80
2022-09-21T17:08:42.997Z,20.80
2022-09-21T17:11:10.097Z,20.07
2022-09-21T17:13:38.075Z,20.06
2022-09-21T17:16:05.571Z,20.17
2022-09-21T17:18:35.746Z,20.35
2022-09-21T17:21:04.469Z,19.37
2022-09-21T17:23:31.894Z,20.27
2022-09-21T17:25:59.197Z,20.50
2022-09-21T17:28:27.179Z,20.31
2022-09-21T17:30:54.722Z,20.12
2022-09-21T17:33:23.069Z,20.40
2022-09-21T17:35:51.225Z,20.59
2022-09-21T17:38:18.660Z,20.62
2022-09-21T17:40:46.649Z,20.69
2022-09-21T17:43:13.780Z,20.27
2022-09-21T17:45:43.564Z,19.78
2022-09-21T17:48:13.037Z,19.80
2022-09-21T17:50:40.505Z,19.90
2022-09-21T17:53:27.626Z,20.35
2022-09-21T17:55:57.138Z,19.54
2022-09-21T17:58:36.419Z,19.98
2022-09-21T18:01:07.508Z,19.08
2022-09-21T18:03:37.832Z,19.56
2022-09-21T18:06:05.170Z,19.25
2022-09-21T18:08:36.173Z,19.25
2022-09-21T18:11:03.967Z,19.29
2022-09-21T18:13:34.376Z,19.10
2022-09-21T18:16:21.519Z,19.27
2022-09-21T18:19:07.754Z,18.92
2022-09-21T18:21:35.898Z,18.91
2022-09-21T18:24:15.109Z,17.70
2022-09-21T18:26:44.434Z,19.02
2022-09-21T18:29:38.905Z,19.01
2022-09-21T18:32:16.259Z,19.52
2022-09-21T18:34:51.111Z,19.04
2022-09-21T18:37:18.748Z,19.50
2022-09-21T18:39:50.805Z,19.31
2022-09-21T18:42:23.033Z,19.39
2022-09-21T18:44:53.518Z,19.17
2022-09-21T18:47:22.711Z,18.87
2022-09-21T18:49:50.194Z,18.25
2022-09-21T18:52:21.486Z,18.75
2022-09-21T18:54:49.592Z,19.03
2022-09-21T18:57:16.857Z,18.12
2022-09-21T18:59:44.479Z,19.14
2022-09-21T19:02:20.282Z,19.48
2022-09-21T19:04:49.282Z,19.53
2022-09-21T19:07:28.950Z,19.02
2022-09-21T19:10:15.549Z,19.05
2022-09-21T19:12:49.206Z,19.40
2022-09-21T19:15:48.717Z,19.83
2022-09-21T19:18:15.695Z,19.95
2022-09-21T19:21:04.381Z,20.12
2022-09-21T19:23:31.549Z,19.85
2022-09-21T19:26:19.682Z,19.53
2022-09-21T19:28:50.430Z,19.83
2022-09-21T19:31:21.334Z,19.85
2022-09-21T19:33:51.198Z,20.14
2022-09-21T19:36:19.430Z,19.78
2022-09-21T19:38:46.695Z,19.63
2022-09-21T19:41:26.180Z,19.32
2022-09-21T19:43:56.645Z,19.47
2022-09-21T19:46:33.537Z,19.43
2022-09-21T19:49:19.750Z,19.51
2022-09-21T19:51:50.685Z,19.65
2022-09-21T19:54:37.971Z,19.73
2022-09-21T19:57:37.108Z,19.61
2022-09-21T20:00:09.162Z,19.68
2022-09-21T20:02:55.617Z,19.50
2022-09-21T20:05:28.555Z,19.06
2022-09-21T20:08:03.153Z,19.34
2022-09-21T20:10:40.885Z,19.54
2022-09-21T20:13:22.019Z,19.59
2022-09-21T20:15:49.186Z,19.60
2022-09-21T20:18:35.322Z,18.96
2022-09-21T20:21:02.551Z,18.61
2022-09-21T20:23:30.292Z,18.74
2022-09-21T20:25:59.966Z,17.79
2022-09-21T20:28:27.277Z,18.42
2022-09-21T20:30:54.779Z,18.15
2022-09-21T20:33:22.746Z,17.87
2022-09-21T20:35:50.444Z,18.05
2022-09-21T20:38:18.523Z,17.51
2022-09-21T20:40:46.909Z,17.16
2022-09-21T20:43:14.311Z,16.98
2022-09-21T20:45:50.313Z,16.78
2022-09-21T20:48:17.595Z,16.14
2022-09-21T20:50:46.288Z,16.49
2022-09-21T20:53:13.540Z,15.60
2022-09-21T20:55:41.149Z,16.33
2022-09-21T20:58:11.064Z,16.04
2022-09-21T21:00:38.232Z,15.82
2022-09-21T21:03:05.406Z,15.54
2022-09-21T21:05:32.818Z,16.33
2022-09-21T21:07:59.940Z,16.24
2022-09-21T21:10:27.092Z,16.53
2022-09-21T21:12:55.064Z,16.56
2022-09-21T21:15:22.218Z,16.75
2022-09-21T21:17:49.429Z,16.64
2022-09-21T21:20:17.078Z,16.45
2022-09-21T21:22:44.822Z,16.00
2022-09-21T21:25:11.948Z,16.27
2022-09-21T21:27:39.742Z,16.33
2022-09-21T21:30:07.673Z,16.26
2022-09-21T21:32:35.134Z,16.62
2022-09-21T21:35:02.527Z,16.93
2022-09-21T21:37:29.830Z,16.89
2022-09-21T21:39:57.066Z,17.14
2022-09-21T21:42:25.386Z,16.79
2022-09-21T21:44:52.538Z,16.93
2022-09-21T21:50:07.191Z,17.18
2022-09-21T21:52:34.317Z,16.56
2022-09-21T21:55:02.412Z,16.70
2022-09-21T21:57:30.119Z,16.64
2022-09-21T21:59:57.410Z,16.59
2022-09-21T22:02:24.632Z,17.11
2022-09-21T22:04:52.696Z,17.29
2022-09-21T22:07:19.807Z,17.69
2022-09-21T22:09:46.903Z,17.37
2022-09-21T22:12:14.497Z,17.15
2022-09-21T22:14:41.609Z,17.31
2022-09-21T22:17:08.751Z,16.77
2022-09-21T22:19:36.160Z,16.48
2022-09-21T22:22:03.249Z,16.14
2022-09-21T22:24:30.347Z,16.39
2022-09-21T22:26:57.754Z,16.41
2022-09-21T22:29:24.885Z,16.82
2022-09-21T22:31:52.536Z,17.23
2022-09-21T22:34:20.512Z,16.96
2022-09-21T22:36:47.609Z,17.24
2022-09-21T22:39:14.773Z,16.33
2022-09-21T22:41:42.303Z,16.38
2022-09-21T22:44:10.240Z,16.50
2022-09-21T22:46:37.613Z,17.02
2022-09-21T22:49:05.231Z,17.06
2022-09-21T22:51:32.642Z,16.17
2022-09-21T22:54:01.436Z,16.58
2022-09-21T22:56:29.594Z,17.09
2022-09-21T22:58:58.341Z,16.50
2022-09-21T23:01:36.441Z,15.69
2022-09-21T23:04:05.112Z,16.33
2022-09-21T23:06:33.418Z,15.54
2022-09-21T23:09:01.543Z,14.71
2022-09-21T23:11:30.101Z,14.81
2022-09-21T23:13:57.804Z,14.70
2022-09-21T23:16:25.554Z,14.57
2022-09-21T23:18:53.665Z,14.34
2022-09-21T23:21:21.793Z,14.87
2022-09-21T23:23:49.056Z,14.80
2022-09-21T23:26:17.587Z,13.86
2022-09-21T23:28:45.755Z,14.27
2022-09-21T23:31:13.765Z,13.91
2022-09-21T23:33:42.455Z,14.20
2022-09-21T23:36:10.257Z,13.66
2022-09-21T23:38:37.738Z,14.24
2022-09-21T23:41:06.730Z,14.10
2022-09-21T23:43:34.317Z,13.99
2022-09-21T23:46:01.865Z,14.52
2022-09-21T23:48:29.307Z,14.82
2022-09-21T23:50:56.786Z,15.37
2022-09-21T23:53:24.239Z,15.50
2022-09-21T23:55:51.765Z,15.14
2022-09-21T23:58:18.941Z,14.92
